KWWD/WWD METAR and TAF weather

Enter ICAO airport designator
Station Type Date Time Source
KWWD METAR 2019/07/20 04:56 UTC NOAA

KWWD 200456Z AUTO 22008KT 10SM CLR 28/24 A2990 RMK AO2 SLP126 T02780239 403330239


Station Type Date Time Source
KWWD Decoded METAR 2019/07/20 04:56 UTC NOAA

Wildwood, Cape May County Airport, NJ, United States (KWWD) 39-01N 074-55W
Jul 20, 2019 - 12:56 AM EDT / 2019.07.20 0456 UTC
Wind: from the SW (220 degrees) at 9 MPH (8 KT):0
Visibility: 10 mile(s):0
Sky conditions: clear
Temperature: 82.0 F (27.8 C)
Dew Point: 75.0 F (23.9 C)
Relative Humidity: 79%
Pressure (altimeter): 29.9 in. Hg (1012 hPa)
ob: KWWD 200456Z AUTO 22008KT 10SM CLR 28/24 A2990 RMK AO2 SLP126 T02780239 403330239
cycle: 5

Station Type Date Time Source
KWWD TAF UTC NOAA

Error!

Example: see airport list